sensor_id;sensor_type;location;lat;lon;timestamp;pressure;altitude;pressure_sealevel;temperature;humidity
24620;BME280;12763;55.802;37.404;2023-03-20T00:00:34;100006.16;;;2.62;69.47
24620;BME280;12763;55.802;37.404;2023-03-20T00:03:00;100003.81;;;2.49;69.73
24620;BME280;12763;55.802;37.404;2023-03-20T00:05:27;100005.59;;;2.58;69.43
24620;BME280;12763;55.802;37.404;2023-03-20T00:07:55;100013.22;;;2.55;69.41
24620;BME280;12763;55.802;37.404;2023-03-20T00:10:26;100004.97;;;2.47;70.21
24620;BME280;12763;55.802;37.404;2023-03-20T00:12:55;100006.53;;;2.49;70.60
24620;BME280;12763;55.802;37.404;2023-03-20T00:15:28;100002.56;;;2.61;70.77
24620;BME280;12763;55.802;37.404;2023-03-20T00:17:55;100010.13;;;2.50;71.14
24620;BME280;12763;55.802;37.404;2023-03-20T00:20:22;100009.50;;;2.38;71.29
24620;BME280;12763;55.802;37.404;2023-03-20T00:22:48;100000.47;;;2.37;72.41
24620;BME280;12763;55.802;37.404;2023-03-20T00:25:21;100006.63;;;2.40;73.45
24620;BME280;12763;55.802;37.404;2023-03-20T00:27:48;100008.63;;;2.37;72.58
24620;BME280;12763;55.802;37.404;2023-03-20T00:30:27;99999.59;;;2.55;72.32
24620;BME280;12763;55.802;37.404;2023-03-20T00:32:55;99994.94;;;2.47;71.63
24620;BME280;12763;55.802;37.404;2023-03-20T00:35:29;99991.13;;;2.58;72.01
24620;BME280;12763;55.802;37.404;2023-03-20T00:37:56;99994.03;;;2.56;71.06
24620;BME280;12763;55.802;37.404;2023-03-20T00:40:27;99996.25;;;2.61;70.55
24620;BME280;12763;55.802;37.404;2023-03-20T00:42:59;99991.06;;;2.67;70.87
24620;BME280;12763;55.802;37.404;2023-03-20T00:45:26;99985.22;;;2.62;70.29
24620;BME280;12763;55.802;37.404;2023-03-20T00:47:52;99988.72;;;2.55;70.53
24620;BME280;12763;55.802;37.404;2023-03-20T00:50:24;99989.50;;;2.65;70.77
24620;BME280;12763;55.802;37.404;2023-03-20T00:52:51;99987.72;;;2.56;70.89
24620;BME280;12763;55.802;37.404;2023-03-20T00:55:18;99993.16;;;2.56;71.00
24620;BME280;12763;55.802;37.404;2023-03-20T00:57:48;99979.91;;;2.61;71.09
24620;BME280;12763;55.802;37.404;2023-03-20T01:00:36;99988.47;;;2.66;70.94
24620;BME280;12763;55.802;37.404;2023-03-20T01:03:19;99987.09;;;2.62;71.00
24620;BME280;12763;55.802;37.404;2023-03-20T01:05:48;99989.44;;;2.39;71.33
24620;BME280;12763;55.802;37.404;2023-03-20T01:08:18;99989.25;;;2.41;72.58
24620;BME280;12763;55.802;37.404;2023-03-20T01:10:45;99992.41;;;2.46;71.71
24620;BME280;12763;55.802;37.404;2023-03-20T01:13:18;99991.66;;;2.44;72.67
24620;BME280;12763;55.802;37.404;2023-03-20T01:15:44;99990.81;;;2.43;71.39
24620;BME280;12763;55.802;37.404;2023-03-20T01:18:12;99985.91;;;2.47;72.00
24620;BME280;12763;55.802;37.404;2023-03-20T01:20:38;99984.13;;;2.37;72.48
24620;BME280;12763;55.802;37.404;2023-03-20T01:23:04;99982.44;;;2.36;72.51
24620;BME280;12763;55.802;37.404;2023-03-20T01:25:30;99981.00;;;2.32;72.91
24620;BME280;12763;55.802;37.404;2023-03-20T01:27:56;99980.56;;;2.37;72.13
24620;BME280;12763;55.802;37.404;2023-03-20T01:30:25;99972.91;;;2.41;71.46
24620;BME280;12763;55.802;37.404;2023-03-20T01:32:52;99975.03;;;2.29;71.11
24620;BME280;12763;55.802;37.404;2023-03-20T01:35:20;99965.47;;;2.43;70.26
24620;BME280;12763;55.802;37.404;2023-03-20T01:37:47;99972.91;;;2.41;69.97
24620;BME280;12763;55.802;37.404;2023-03-20T01:40:36;99969.88;;;2.44;70.30
24620;BME280;12763;55.802;37.404;2023-03-20T01:43:15;99969.38;;;2.40;70.22
24620;BME280;12763;55.802;37.404;2023-03-20T01:46:03;99967.63;;;2.39;70.02
24620;BME280;12763;55.802;37.404;2023-03-20T01:51:22;99961.03;;;2.42;68.47
24620;BME280;12763;55.802;37.404;2023-03-20T01:56:28;99956.34;;;2.34;68.54
24620;BME280;12763;55.802;37.404;2023-03-20T01:59:13;99956.44;;;2.24;70.46
24620;BME280;12763;55.802;37.404;2023-03-20T02:01:41;99944.91;;;2.13;69.78
24620;BME280;12763;55.802;37.404;2023-03-20T02:04:10;99953.94;;;2.13;70.50
24620;BME280;12763;55.802;37.404;2023-03-20T02:06:50;99947.50;;;2.14;70.44
24620;BME280;12763;55.802;37.404;2023-03-20T02:09:26;99942.53;;;2.10;70.63
24620;BME280;12763;55.802;37.404;2023-03-20T02:11:53;99945.31;;;2.18;69.90
24620;BME280;12763;55.802;37.404;2023-03-20T02:14:21;99946.69;;;2.22;69.82
24620;BME280;12763;55.802;37.404;2023-03-20T02:16:59;99946.41;;;2.25;69.63
24620;BME280;12763;55.802;37.404;2023-03-20T02:19:52;99948.34;;;2.32;69.64
24620;BME280;12763;55.802;37.404;2023-03-20T02:29:16;99930.44;;;2.48;67.42
24620;BME280;12763;55.802;37.404;2023-03-20T02:58:59;99908.47;;;2.49;61.46
24620;BME280;12763;55.802;37.404;2023-03-20T03:01:44;99913.72;;;2.43;61.14
24620;BME280;12763;55.802;37.404;2023-03-20T03:04:16;99913.31;;;2.37;61.70
24620;BME280;12763;55.802;37.404;2023-03-20T03:06:45;99912.16;;;2.22;61.12
24620;BME280;12763;55.802;37.404;2023-03-20T03:09:21;99902.28;;;2.21;61.23
24620;BME280;12763;55.802;37.404;2023-03-20T03:11:55;99898.44;;;2.32;60.36
24620;BME280;12763;55.802;37.404;2023-03-20T03:17:01;99903.25;;;2.38;59.92
24620;BME280;12763;55.802;37.404;2023-03-20T03:19:29;99906.47;;;2.33;59.83
24620;BME280;12763;55.802;37.404;2023-03-20T03:21:56;99894.84;;;2.49;59.03
24620;BME280;12763;55.802;37.404;2023-03-20T03:24:32;99892.72;;;2.61;58.56
24620;BME280;12763;55.802;37.404;2023-03-20T03:27:00;99893.28;;;2.47;57.63
24620;BME280;12763;55.802;37.404;2023-03-20T03:29:32;99899.91;;;2.62;57.52
24620;BME280;12763;55.802;37.404;2023-03-20T03:32:00;99890.16;;;2.59;58.10
24620;BME280;12763;55.802;37.404;2023-03-20T03:34:27;99898.91;;;2.45;57.74
24620;BME280;12763;55.802;37.404;2023-03-20T03:39:50;99890.44;;;2.30;56.79
24620;BME280;12763;55.802;37.404;2023-03-20T03:42:31;99892.91;;;2.42;56.23
24620;BME280;12763;55.802;37.404;2023-03-20T03:45:13;99885.19;;;2.55;56.51
24620;BME280;12763;55.802;37.404;2023-03-20T03:47:47;99896.53;;;2.24;57.17
24620;BME280;12763;55.802;37.404;2023-03-20T03:50:43;99892.56;;;2.19;57.51
24620;BME280;12763;55.802;37.404;2023-03-20T03:53:20;99879.66;;;2.21;58.09
24620;BME280;12763;55.802;37.404;2023-03-20T03:55:49;99873.88;;;2.24;57.78
24620;BME280;12763;55.802;37.404;2023-03-20T03:58:43;99876.16;;;2.28;58.47
24620;BME280;12763;55.802;37.404;2023-03-20T04:01:11;99874.59;;;2.08;57.90
24620;BME280;12763;55.802;37.404;2023-03-20T04:03:43;99880.97;;;2.17;58.79
24620;BME280;12763;55.802;37.404;2023-03-20T04:06:11;99882.75;;;2.08;58.26
24620;BME280;12763;55.802;37.404;2023-03-20T04:08:40;99876.66;;;2.32;57.99
24620;BME280;12763;55.802;37.404;2023-03-20T04:11:14;99877.00;;;2.55;57.13
24620;BME280;12763;55.802;37.404;2023-03-20T04:13:41;99873.59;;;2.53;56.24
24620;BME280;12763;55.802;37.404;2023-03-20T04:16:11;99879.13;;;2.43;56.23
24620;BME280;12763;55.802;37.404;2023-03-20T04:18:39;99869.72;;;2.37;55.92
24620;BME280;12763;55.802;37.404;2023-03-20T04:21:05;99866.44;;;2.52;55.43
24620;BME280;12763;55.802;37.404;2023-03-20T04:23:32;99861.75;;;2.62;55.52
24620;BME280;12763;55.802;37.404;2023-03-20T04:25:59;99865.75;;;2.50;55.53
24620;BME280;12763;55.802;37.404;2023-03-20T04:28:24;99860.03;;;2.61;54.53
24620;BME280;12763;55.802;37.404;2023-03-20T04:31:16;99859.94;;;2.70;53.98
24620;BME280;12763;55.802;37.404;2023-03-20T04:34:05;99851.16;;;2.84;54.48
24620;BME280;12763;55.802;37.404;2023-03-20T04:36:31;99856.41;;;2.78;54.09
24620;BME280;12763;55.802;37.404;2023-03-20T04:38:57;99841.09;;;2.85;53.66
24620;BME280;12763;55.802;37.404;2023-03-20T04:41:24;99854.66;;;2.77;53.03
24620;BME280;12763;55.802;37.404;2023-03-20T04:43:53;99851.47;;;2.81;52.72
24620;BME280;12763;55.802;37.404;2023-03-20T04:46:21;99850.63;;;2.81;52.41
24620;BME280;12763;55.802;37.404;2023-03-20T04:48:47;99857.16;;;2.96;52.30
24620;BME280;12763;55.802;37.404;2023-03-20T04:51:14;99852.03;;;2.93;51.33
24620;BME280;12763;55.802;37.404;2023-03-20T04:53:44;99860.47;;;3.08;50.98
24620;BME280;12763;55.802;37.404;2023-03-20T04:56:11;99860.50;;;3.16;51.28
24620;BME280;12763;55.802;37.404;2023-03-20T04:58:37;99865.25;;;2.80;49.73
24620;BME280;12763;55.802;37.404;2023-03-20T05:01:03;99864.41;;;3.13;50.27
24620;BME280;12763;55.802;37.404;2023-03-20T05:03:29;99865.09;;;3.15;50.38
24620;BME280;12763;55.802;37.404;2023-03-20T05:05:55;99872.16;;;3.26;49.77
24620;BME280;12763;55.802;37.404;2023-03-20T05:08:21;99874.31;;;3.14;49.74
24620;BME280;12763;55.802;37.404;2023-03-20T05:10:52;99883.81;;;3.10;50.68
24620;BME280;12763;55.802;37.404;2023-03-20T05:13:36;99867.66;;;3.17;50.33
24620;BME280;12763;55.802;37.404;2023-03-20T05:16:20;99870.53;;;3.15;49.80
24620;BME280;12763;55.802;37.404;2023-03-20T05:19:12;99869.44;;;3.26;49.96
24620;BME280;12763;55.802;37.404;2023-03-20T05:21:38;99864.88;;;3.42;49.19
24620;BME280;12763;55.802;37.404;2023-03-20T05:24:24;99872.28;;;3.66;48.83
24620;BME280;12763;55.802;37.404;2023-03-20T05:27:08;99869.22;;;3.69;48.07
24620;BME280;12763;55.802;37.404;2023-03-20T05:30:05;99867.91;;;4.05;47.46
24620;BME280;12763;55.802;37.404;2023-03-20T05:32:50;99869.28;;;4.34;47.22
24620;BME280;12763;55.802;37.404;2023-03-20T05:35:25;99871.66;;;4.12;46.64
24620;BME280;12763;55.802;37.404;2023-03-20T05:37:57;99868.78;;;4.14;46.50
24620;BME280;12763;55.802;37.404;2023-03-20T05:40:58;99865.00;;;4.31;46.58
24620;BME280;12763;55.802;37.404;2023-03-20T05:43:37;99870.84;;;4.36;46.16
24620;BME280;12763;55.802;37.404;2023-03-20T05:46:35;99867.22;;;4.03;46.26
24620;BME280;12763;55.802;37.404;2023-03-20T05:49:23;99868.78;;;4.14;46.42
24620;BME280;12763;55.802;37.404;2023-03-20T05:52:09;99871.84;;;4.11;46.27
24620;BME280;12763;55.802;37.404;2023-03-20T05:54:58;99879.66;;;3.98;47.09
24620;BME280;12763;55.802;37.404;2023-03-20T05:57:50;99875.41;;;4.11;46.80
24620;BME280;12763;55.802;37.404;2023-03-20T06:00:34;99883.44;;;4.05;47.75
24620;BME280;12763;55.802;37.404;2023-03-20T06:03:20;99871.00;;;4.19;47.29
24620;BME280;12763;55.802;37.404;2023-03-20T06:05:58;99874.59;;;4.11;47.42
24620;BME280;12763;55.802;37.404;2023-03-20T06:08:24;99867.75;;;4.23;48.10
24620;BME280;12763;55.802;37.404;2023-03-20T06:10:51;99874.06;;;4.40;47.29
24620;BME280;12763;55.802;37.404;2023-03-20T06:13:17;99880.03;;;4.43;47.43
24620;BME280;12763;55.802;37.404;2023-03-20T06:15:43;99873.88;;;4.57;47.57
24620;BME280;12763;55.802;37.404;2023-03-20T06:18:14;99870.13;;;4.66;47.87
24620;BME280;12763;55.802;37.404;2023-03-20T06:20:40;99866.38;;;4.59;48.39
24620;BME280;12763;55.802;37.404;2023-03-20T06:23:07;99865.47;;;4.91;47.79
24620;BME280;12763;55.802;37.404;2023-03-20T06:25:33;99868.66;;;5.11;47.74
24620;BME280;12763;55.802;37.404;2023-03-20T06:28:00;99877.06;;;5.48;47.18
24620;BME280;12763;55.802;37.404;2023-03-20T06:30:26;99864.50;;;5.23;47.54
24620;BME280;12763;55.802;37.404;2023-03-20T06:32:53;99862.13;;;5.12;47.38
24620;BME280;12763;55.802;37.404;2023-03-20T06:35:20;99871.75;;;5.08;48.49
24620;BME280;12763;55.802;37.404;2023-03-20T06:37:48;99866.78;;;5.03;47.97
24620;BME280;12763;55.802;37.404;2023-03-20T06:40:20;99867.47;;;5.05;48.09
24620;BME280;12763;55.802;37.404;2023-03-20T06:42:47;99863.06;;;4.96;47.98
24620;BME280;12763;55.802;37.404;2023-03-20T06:45:14;99857.03;;;5.09;47.99
24620;BME280;12763;55.802;37.404;2023-03-20T06:47:58;99867.91;;;5.25;48.42
24620;BME280;12763;55.802;37.404;2023-03-20T06:50:24;99865.63;;;4.82;48.48
24620;BME280;12763;55.802;37.404;2023-03-20T06:52:50;99853.94;;;5.12;48.47
24620;BME280;12763;55.802;37.404;2023-03-20T06:55:35;99863.50;;;5.16;48.14
24620;BME280;12763;55.802;37.404;2023-03-20T06:58:01;99856.56;;;5.36;47.88
24620;BME280;12763;55.802;37.404;2023-03-20T07:00:28;99849.47;;;5.58;47.60
24620;BME280;12763;55.802;37.404;2023-03-20T07:02:55;99850.03;;;5.45;48.03
24620;BME280;12763;55.802;37.404;2023-03-20T07:05:22;99846.03;;;5.56;47.44
24620;BME280;12763;55.802;37.404;2023-03-20T07:07:48;99838.72;;;5.79;47.06
24620;BME280;12763;55.802;37.404;2023-03-20T07:10:13;99844.72;;;5.74;46.54
24620;BME280;12763;55.802;37.404;2023-03-20T07:12:46;99848.44;;;5.89;46.47
24620;BME280;12763;55.802;37.404;2023-03-20T07:15:13;99844.56;;;6.07;46.42
24620;BME280;12763;55.802;37.404;2023-03-20T07:17:38;99842.97;;;6.35;45.64
24620;BME280;12763;55.802;37.404;2023-03-20T07:20:05;99833.69;;;6.36;45.27
24620;BME280;12763;55.802;37.404;2023-03-20T07:22:33;99828.03;;;6.37;45.56
24620;BME280;12763;55.802;37.404;2023-03-20T07:25:19;99836.34;;;6.44;45.23
24620;BME280;12763;55.802;37.404;2023-03-20T07:27:46;99831.59;;;6.38;45.20
24620;BME280;12763;55.802;37.404;2023-03-20T07:30:17;99823.56;;;6.59;44.94
24620;BME280;12763;55.802;37.404;2023-03-20T07:32:44;99822.72;;;6.88;44.59
24620;BME280;12763;55.802;37.404;2023-03-20T07:35:11;99827.19;;;7.03;44.21
24620;BME280;12763;55.802;37.404;2023-03-20T07:37:40;99824.16;;;6.84;44.04
24620;BME280;12763;55.802;37.404;2023-03-20T07:40:07;99825.00;;;6.99;44.08
24620;BME280;12763;55.802;37.404;2023-03-20T07:42:54;99817.44;;;6.86;44.22
24620;BME280;12763;55.802;37.404;2023-03-20T07:45:49;99825.28;;;7.19;43.66
24620;BME280;12763;55.802;37.404;2023-03-20T07:48:18;99820.59;;;6.61;44.79
24620;BME280;12763;55.802;37.404;2023-03-20T07:50:44;99815.69;;;6.56;45.55
24620;BME280;12763;55.802;37.404;2023-03-20T07:53:10;99819.13;;;6.73;45.29
24620;BME280;12763;55.802;37.404;2023-03-20T07:55:36;99818.47;;;6.85;45.21
24620;BME280;12763;55.802;37.404;2023-03-20T07:58:02;99818.09;;;7.18;44.52
24620;BME280;12763;55.802;37.404;2023-03-20T08:00:27;99817.25;;;7.02;44.67
24620;BME280;12763;55.802;37.404;2023-03-20T08:02:53;99816.88;;;7.20;44.07
24620;BME280;12763;55.802;37.404;2023-03-20T08:05:21;99812.72;;;7.09;43.88
24620;BME280;12763;55.802;37.404;2023-03-20T08:07:47;99820.47;;;7.21;44.22
24620;BME280;12763;55.802;37.404;2023-03-20T08:10:13;99809.75;;;7.26;44.20
24620;BME280;12763;55.802;37.404;2023-03-20T08:12:40;99812.78;;;7.31;44.11
24620;BME280;12763;55.802;37.404;2023-03-20T08:15:06;99805.78;;;7.43;44.24
24620;BME280;12763;55.802;37.404;2023-03-20T08:17:32;99802.81;;;7.80;43.54
24620;BME280;12763;55.802;37.404;2023-03-20T08:19:58;99799.25;;;8.01;43.19
24620;BME280;12763;55.802;37.404;2023-03-20T08:22:23;99802.66;;;8.03;42.82
24620;BME280;12763;55.802;37.404;2023-03-20T08:24:49;99799.41;;;8.20;42.65
24620;BME280;12763;55.802;37.404;2023-03-20T08:27:15;99794.75;;;8.36;42.50
24620;BME280;12763;55.802;37.404;2023-03-20T08:29:41;99798.28;;;8.30;42.26
24620;BME280;12763;55.802;37.404;2023-03-20T08:32:07;99796.94;;;8.25;42.03
24620;BME280;12763;55.802;37.404;2023-03-20T08:34:33;99792.66;;;8.23;41.85
24620;BME280;12763;55.802;37.404;2023-03-20T08:36:59;99790.28;;;8.35;41.24
24620;BME280;12763;55.802;37.404;2023-03-20T08:39:27;99787.91;;;8.53;41.14
24620;BME280;12763;55.802;37.404;2023-03-20T08:41:52;99789.59;;;8.54;41.18
24620;BME280;12763;55.802;37.404;2023-03-20T08:44:18;99783.28;;;8.60;41.26
24620;BME280;12763;55.802;37.404;2023-03-20T08:46:44;99775.66;;;8.55;41.10
24620;BME280;12763;55.802;37.404;2023-03-20T08:49:11;99766.94;;;8.52;41.10
24620;BME280;12763;55.802;37.404;2023-03-20T08:51:36;99771.75;;;8.43;41.40
24620;BME280;12763;55.802;37.404;2023-03-20T08:54:02;99769.00;;;8.22;41.77
24620;BME280;12763;55.802;37.404;2023-03-20T08:56:28;99767.09;;;8.01;42.29
24620;BME280;12763;55.802;37.404;2023-03-20T08:58:53;99766.78;;;8.11;42.25
24620;BME280;12763;55.802;37.404;2023-03-20T09:01:20;99770.94;;;8.07;42.18
24620;BME280;12763;55.802;37.404;2023-03-20T09:03:46;99758.38;;;8.19;41.89
24620;BME280;12763;55.802;37.404;2023-03-20T09:06:12;99766.22;;;8.37;41.46
24620;BME280;12763;55.802;37.404;2023-03-20T09:08:37;99768.13;;;8.43;41.64
24620;BME280;12763;55.802;37.404;2023-03-20T09:11:06;99767.19;;;8.57;41.39
24620;BME280;12763;55.802;37.404;2023-03-20T09:13:32;99758.69;;;8.52;41.33
24620;BME280;12763;55.802;37.404;2023-03-20T09:15:58;99764.03;;;8.32;41.54
24620;BME280;12763;55.802;37.404;2023-03-20T09:18:24;99757.44;;;8.54;40.91
24620;BME280;12763;55.802;37.404;2023-03-20T09:20:50;99757.34;;;8.41;40.91
24620;BME280;12763;55.802;37.404;2023-03-20T09:23:16;99759.69;;;8.72;40.69
24620;BME280;12763;55.802;37.404;2023-03-20T09:25:43;99757.75;;;9.00;40.19
24620;BME280;12763;55.802;37.404;2023-03-20T09:28:08;99753.81;;;9.22;39.62
24620;BME280;12763;55.802;37.404;2023-03-20T09:30:34;99749.56;;;9.13;38.03
24620;BME280;12763;55.802;37.404;2023-03-20T09:33:00;99753.53;;;9.04;37.96
24620;BME280;12763;55.802;37.404;2023-03-20T09:35:26;99752.75;;;9.17;37.70
24620;BME280;12763;55.802;37.404;2023-03-20T09:37:52;99743.06;;;9.27;36.40
24620;BME280;12763;55.802;37.404;2023-03-20T09:40:25;99742.88;;;9.35;35.70
24620;BME280;12763;55.802;37.404;2023-03-20T09:42:54;99743.47;;;9.24;35.69
24620;BME280;12763;55.802;37.404;2023-03-20T09:48:32;99726.47;;;9.75;34.85
24620;BME280;12763;55.802;37.404;2023-03-20T09:51:09;99719.94;;;10.41;34.21
24620;BME280;12763;55.802;37.404;2023-03-20T09:53:42;99716.53;;;10.79;34.00
24620;BME280;12763;55.802;37.404;2023-03-20T09:56:20;99709.66;;;11.01;33.32
24620;BME280;12763;55.802;37.404;2023-03-20T09:58:53;99701.06;;;11.29;32.17
24620;BME280;12763;55.802;37.404;2023-03-20T10:01:23;99703.22;;;11.64;32.18
24620;BME280;12763;55.802;37.404;2023-03-20T10:04:03;99712.06;;;12.11;31.84
24620;BME280;12763;55.802;37.404;2023-03-20T10:06:32;99714.59;;;11.43;31.51
24620;BME280;12763;55.802;37.404;2023-03-20T10:08:58;99700.56;;;11.38;31.25
24620;BME280;12763;55.802;37.404;2023-03-20T10:21:44;99691.75;;;11.54;28.60
24620;BME280;12763;55.802;37.404;2023-03-20T10:24:16;99691.25;;;11.77;29.41
24620;BME280;12763;55.802;37.404;2023-03-20T10:26:46;99686.94;;;12.12;29.85
24620;BME280;12763;55.802;37.404;2023-03-20T10:29:32;99682.31;;;12.31;27.82
24620;BME280;12763;55.802;37.404;2023-03-20T10:32:08;99679.66;;;12.18;28.10
24620;BME280;12763;55.802;37.404;2023-03-20T10:38:12;99683.31;;;12.79;27.72
24620;BME280;12763;55.802;37.404;2023-03-20T10:40:41;99669.03;;;12.82;28.14
24620;BME280;12763;55.802;37.404;2023-03-20T10:43:18;99663.75;;;13.17;27.85
24620;BME280;12763;55.802;37.404;2023-03-20T10:45:55;99666.22;;;13.55;27.64
24620;BME280;12763;55.802;37.404;2023-03-20T10:50:54;99661.81;;;14.19;28.71
24620;BME280;12763;55.802;37.404;2023-03-20T10:53:31;99654.34;;;15.00;26.68
24620;BME280;12763;55.802;37.404;2023-03-20T10:56:05;99647.81;;;15.06;26.80
24620;BME280;12763;55.802;37.404;2023-03-20T10:58:43;99653.50;;;15.40;27.14
24620;BME280;12763;55.802;37.404;2023-03-20T11:01:11;99647.94;;;15.40;27.41
24620;BME280;12763;55.802;37.404;2023-03-20T11:03:37;99646.06;;;15.68;27.25
24620;BME280;12763;55.802;37.404;2023-03-20T11:08:39;99646.38;;;17.05;25.72
24620;BME280;12763;55.802;37.404;2023-03-20T11:11:06;99636.91;;;17.49;25.50
24620;BME280;12763;55.802;37.404;2023-03-20T11:13:40;99640.75;;;17.22;24.64
24620;BME280;12763;55.802;37.404;2023-03-20T11:16:30;99629.56;;;17.65;24.33
24620;BME280;12763;55.802;37.404;2023-03-20T11:19:06;99634.09;;;18.61;23.67
24620;BME280;12763;55.802;37.404;2023-03-20T11:21:34;99624.44;;;18.42;24.45
24620;BME280;12763;55.802;37.404;2023-03-20T11:24:03;99631.53;;;18.23;24.71
24620;BME280;12763;55.802;37.404;2023-03-20T11:26:38;99624.63;;;19.09;22.66
24620;BME280;12763;55.802;37.404;2023-03-20T11:31:49;99622.09;;;18.29;24.86
24620;BME280;12763;55.802;37.404;2023-03-20T11:36:56;99610.41;;;19.21;23.96
24620;BME280;12763;55.802;37.404;2023-03-20T11:39:27;99610.56;;;19.51;23.89
24620;BME280;12763;55.802;37.404;2023-03-20T11:41:56;99607.81;;;18.99;24.43
24620;BME280;12763;55.802;37.404;2023-03-20T11:44:30;99603.44;;;18.35;24.35
24620;BME280;12763;55.802;37.404;2023-03-20T11:47:02;99601.09;;;19.00;24.81
24620;BME280;12763;55.802;37.404;2023-03-20T11:49:29;99588.44;;;19.45;24.59
24620;BME280;12763;55.802;37.404;2023-03-20T11:51:59;99577.84;;;19.72;23.88
24620;BME280;12763;55.802;37.404;2023-03-20T11:54:26;99584.28;;;19.62;24.12
24620;BME280;12763;55.802;37.404;2023-03-20T11:56:56;99585.56;;;19.29;24.66
24620;BME280;12763;55.802;37.404;2023-03-20T11:59:29;99577.53;;;19.48;23.93
24620;BME280;12763;55.802;37.404;2023-03-20T12:01:57;99581.84;;;19.09;24.66
24620;BME280;12763;55.802;37.404;2023-03-20T12:04:36;99573.22;;;19.25;23.74
24620;BME280;12763;55.802;37.404;2023-03-20T12:07:10;99572.84;;;19.94;24.21
24620;BME280;12763;55.802;37.404;2023-03-20T12:18:03;99562.84;;;19.11;24.87
24620;BME280;12763;55.802;37.404;2023-03-20T12:25:57;99539.81;;;20.06;24.21
24620;BME280;12763;55.802;37.404;2023-03-20T12:28:32;99545.16;;;20.38;24.61
24620;BME280;12763;55.802;37.404;2023-03-20T12:34:01;99543.47;;;20.32;24.44
24620;BME280;12763;55.802;37.404;2023-03-20T12:36:42;99532.63;;;20.99;23.86
24620;BME280;12763;55.802;37.404;2023-03-20T12:39:14;99536.63;;;21.47;23.31
24620;BME280;12763;55.802;37.404;2023-03-20T12:52:54;99519.34;;;20.41;23.82
24620;BME280;12763;55.802;37.404;2023-03-20T13:01:05;99507.88;;;20.17;24.89
24620;BME280;12763;55.802;37.404;2023-03-20T13:09:08;99494.69;;;18.65;26.38
24620;BME280;12763;55.802;37.404;2023-03-20T13:23:12;99492.16;;;18.58;26.26
24620;BME280;12763;55.802;37.404;2023-03-20T13:31:33;99489.97;;;20.03;25.06
24620;BME280;12763;55.802;37.404;2023-03-20T13:39:21;99479.88;;;20.07;25.53
24620;BME280;12763;55.802;37.404;2023-03-20T13:41:49;99473.44;;;19.66;26.20
24620;BME280;12763;55.802;37.404;2023-03-20T13:44:17;99476.22;;;20.12;25.99
24620;BME280;12763;55.802;37.404;2023-03-20T13:52:48;99462.78;;;20.24;25.42
24620;BME280;12763;55.802;37.404;2023-03-20T13:55:27;99460.53;;;20.16;25.96
24620;BME280;12763;55.802;37.404;2023-03-20T13:58:26;99455.19;;;20.39;25.71
24620;BME280;12763;55.802;37.404;2023-03-20T14:01:04;99454.94;;;20.11;26.23
24620;BME280;12763;55.802;37.404;2023-03-20T14:03:39;99460.59;;;19.85;26.39
24620;BME280;12763;55.802;37.404;2023-03-20T14:06:48;99447.03;;;19.07;26.75
24620;BME280;12763;55.802;37.404;2023-03-20T14:09:28;99445.50;;;17.75;28.33
24620;BME280;12763;55.802;37.404;2023-03-20T14:11:59;99445.28;;;16.70;29.63
24620;BME280;12763;55.802;37.404;2023-03-20T14:14:30;99440.59;;;15.77;31.02
24620;BME280;12763;55.802;37.404;2023-03-20T14:17:18;99440.59;;;14.54;32.85
24620;BME280;12763;55.802;37.404;2023-03-20T14:19:45;99450.09;;;13.95;33.31
24620;BME280;12763;55.802;37.404;2023-03-20T14:22:20;99438.16;;;13.94;34.01
24620;BME280;12763;55.802;37.404;2023-03-20T14:24:59;99438.16;;;13.94;34.13
24620;BME280;12763;55.802;37.404;2023-03-20T14:27:29;99436.25;;;13.83;33.87
24620;BME280;12763;55.802;37.404;2023-03-20T14:33:05;99431.06;;;13.64;34.84
24620;BME280;12763;55.802;37.404;2023-03-20T14:36:09;99436.97;;;13.56;35.80
24620;BME280;12763;55.802;37.404;2023-03-20T14:41:16;99430.06;;;13.12;36.01
24620;BME280;12763;55.802;37.404;2023-03-20T14:54:53;99426.47;;;12.63;37.17
24620;BME280;12763;55.802;37.404;2023-03-20T14:57:32;99429.84;;;12.65;37.41
24620;BME280;12763;55.802;37.404;2023-03-20T14:59:58;99428.34;;;12.51;37.54
24620;BME280;12763;55.802;37.404;2023-03-20T15:02:28;99424.28;;;12.54;37.61
24620;BME280;12763;55.802;37.404;2023-03-20T15:04:55;99425.91;;;12.43;37.88
24620;BME280;12763;55.802;37.404;2023-03-20T15:07:29;99422.56;;;12.23;38.89
24620;BME280;12763;55.802;37.404;2023-03-20T15:09:59;99421.19;;;12.14;38.74
24620;BME280;12763;55.802;37.404;2023-03-20T15:12:33;99429.63;;;11.83;39.95
24620;BME280;12763;55.802;37.404;2023-03-20T15:15:07;99418.38;;;11.59;41.55
24620;BME280;12763;55.802;37.404;2023-03-20T15:20:22;99427.75;;;11.34;41.27
24620;BME280;12763;55.802;37.404;2023-03-20T15:22:55;99419.56;;;11.45;41.79
24620;BME280;12763;55.802;37.404;2023-03-20T15:25:34;99421.44;;;11.27;42.25
24620;BME280;12763;55.802;37.404;2023-03-20T15:28:04;99421.63;;;11.07;42.73
24620;BME280;12763;55.802;37.404;2023-03-20T15:30:31;99417.97;;;10.82;43.10
24620;BME280;12763;55.802;37.404;2023-03-20T15:32:57;99422.22;;;10.78;43.07
24620;BME280;12763;55.802;37.404;2023-03-20T15:35:25;99413.41;;;10.94;43.00
24620;BME280;12763;55.802;37.404;2023-03-20T15:37:52;99413.34;;;10.76;43.44
24620;BME280;12763;55.802;37.404;2023-03-20T15:40:27;99421.63;;;10.76;44.58
24620;BME280;12763;55.802;37.404;2023-03-20T15:43:03;99416.34;;;10.74;44.36
24620;BME280;12763;55.802;37.404;2023-03-20T15:45:32;99418.84;;;10.76;44.23
24620;BME280;12763;55.802;37.404;2023-03-20T15:48:10;99420.28;;;10.85;44.74
24620;BME280;12763;55.802;37.404;2023-03-20T15:50:38;99414.59;;;10.80;44.42
24620;BME280;12763;55.802;37.404;2023-03-20T15:53:05;99414.53;;;10.55;44.87
24620;BME280;12763;55.802;37.404;2023-03-20T15:55:36;99420.19;;;10.67;44.91
24620;BME280;12763;55.802;37.404;2023-03-20T15:58:03;99420.00;;;10.61;44.76
24620;BME280;12763;55.802;37.404;2023-03-20T16:00:33;99426.84;;;10.52;45.29